createdAt,value
2019-05-30T00:00:17.135Z,101539.25
2019-05-30T00:02:40.284Z,101536.75
2019-05-30T00:05:12.022Z,101534.23
2019-05-30T00:07:43.331Z,101536.63
2019-05-30T00:10:14.757Z,101528.12
2019-05-30T00:12:46.026Z,101535.31
2019-05-30T00:15:17.464Z,101535.48
2019-05-30T00:17:48.785Z,101536.80
2019-05-30T00:20:20.198Z,101536.65
2019-05-30T00:22:51.531Z,101534.59
2019-05-30T00:25:22.936Z,101537.43
2019-05-30T00:27:55.070Z,101534.72
2019-05-30T00:30:26.409Z,101535.56
2019-05-30T00:32:58.919Z,101536.27
2019-05-30T00:35:30.351Z,101537.47
2019-05-30T00:38:01.935Z,101537.97
2019-05-30T00:40:33.221Z,101538.98
2019-05-30T00:43:04.614Z,101537.00
2019-05-30T00:45:35.931Z,101537.86
2019-05-30T00:48:07.299Z,101536.84
2019-05-30T00:50:38.639Z,101537.19
2019-05-30T00:53:09.943Z,101539.39
2019-05-30T00:55:43.278Z,101532.69
2019-05-30T00:58:14.201Z,101532.02
2019-05-30T01:00:45.941Z,101530.00
2019-05-30T01:03:17.426Z,101532.00
2019-05-30T01:05:48.746Z,101530.34
2019-05-30T01:08:20.125Z,101533.05
2019-05-30T01:10:51.480Z,101527.00
2019-05-30T01:13:22.789Z,101531.83
2019-05-30T01:15:54.073Z,101533.70
2019-05-30T01:18:25.374Z,101527.16
2019-05-30T01:20:57.002Z,101526.35
2019-05-30T01:23:28.393Z,101531.35
2019-05-30T01:25:59.704Z,101532.03
2019-05-30T01:28:30.957Z,101529.32
2019-05-30T01:31:05.548Z,101530.17
2019-05-30T01:33:35.594Z,101527.67
2019-05-30T01:36:07.938Z,101535.53
2019-05-30T01:38:39.368Z,101527.52
2019-05-30T01:41:10.658Z,101527.50
2019-05-30T01:43:42.074Z,101519.81
2019-05-30T01:46:13.344Z,101519.98
2019-05-30T01:48:44.617Z,101516.98
2019-05-30T01:51:15.954Z,101516.30
2019-05-30T01:53:47.196Z,101520.98
2019-05-30T01:56:18.513Z,101517.15
2019-05-30T01:58:49.801Z,101513.45
2019-05-30T02:01:24.969Z,101514.45
2019-05-30T02:03:54.133Z,101514.27
2019-05-30T02:06:25.445Z,101517.45
2019-05-30T02:08:56.797Z,101516.28
2019-05-30T02:11:28.100Z,101515.92
2019-05-30T02:13:59.619Z,101518.64
2019-05-30T02:16:31.320Z,101517.63
2019-05-30T02:19:03.721Z,101514.42
2019-05-30T02:21:35.130Z,101514.27
2019-05-30T02:24:06.593Z,101511.61
2019-05-30T02:26:37.862Z,101514.63
2019-05-30T02:29:10.354Z,101511.09
2019-05-30T02:31:41.816Z,101512.27
2019-05-30T02:34:13.261Z,101504.59
2019-05-30T02:36:44.567Z,101508.89
2019-05-30T02:39:15.836Z,101511.09
2019-05-30T02:41:47.120Z,101511.94
2019-05-30T02:44:18.407Z,101512.59
2019-05-30T02:46:49.723Z,101515.95
2019-05-30T02:49:21.014Z,101517.46
2019-05-30T02:51:52.293Z,101513.59
2019-05-30T02:54:23.618Z,101511.91
2019-05-30T02:56:54.903Z,101520.27
2019-05-30T02:59:26.224Z,101522.95
2019-05-30T03:02:02.084Z,101529.47
2019-05-30T03:04:30.443Z,101520.42
2019-05-30T03:07:03.883Z,101525.95
2019-05-30T03:09:35.411Z,101525.45
2019-05-30T03:12:09.163Z,101529.84
2019-05-30T03:14:40.128Z,101527.80
2019-05-30T03:17:12.643Z,101530.81
2019-05-30T03:19:44.555Z,101526.95
2019-05-30T03:22:15.871Z,101527.97
2019-05-30T03:24:47.123Z,101530.82
2019-05-30T03:27:18.434Z,101528.66
2019-05-30T03:29:49.682Z,101537.03
2019-05-30T03:34:54.060Z,101544.59
2019-05-30T03:37:29.208Z,101539.71
2019-05-30T03:39:58.382Z,101547.42
2019-05-30T03:42:29.813Z,101544.87
2019-05-30T03:45:01.187Z,101549.42
2019-05-30T03:47:37.348Z,101552.09
2019-05-30T03:50:12.480Z,101547.05
2019-05-30T03:52:45.513Z,101539.19
2019-05-30T03:55:20.624Z,101541.58
2019-05-30T03:58:02.276Z,101545.44
2019-05-30T04:00:50.965Z,101544.42
2019-05-30T04:03:39.933Z,101537.03
2019-05-30T04:06:24.147Z,101538.05
2019-05-30T04:09:01.977Z,101542.03
2019-05-30T04:11:52.843Z,101541.38
2019-05-30T04:14:29.542Z,101533.64
2019-05-30T04:17:00.870Z,101541.01
2019-05-30T04:19:32.250Z,101538.17
2019-05-30T04:22:03.560Z,101541.86
2019-05-30T04:24:34.866Z,101540.34
2019-05-30T04:27:07.929Z,101542.98
2019-05-30T04:29:39.270Z,101544.64
2019-05-30T04:32:12.393Z,101551.66
2019-05-30T04:34:43.528Z,101552.67
2019-05-30T04:37:15.457Z,101549.13
2019-05-30T04:39:47.780Z,101545.59
2019-05-30T04:42:20.761Z,101538.33
2019-05-30T04:44:52.012Z,101543.89
2019-05-30T04:47:23.334Z,101541.00
2019-05-30T04:49:54.651Z,101535.62
2019-05-30T04:52:25.928Z,101541.14
2019-05-30T04:54:57.262Z,101538.44
2019-05-30T04:57:28.554Z,101530.85
2019-05-30T04:59:59.851Z,101545.07
2019-05-30T05:02:31.211Z,101545.03
2019-05-30T05:05:02.503Z,101539.97
2019-05-30T05:07:33.817Z,101547.52
2019-05-30T05:10:05.578Z,101544.34
2019-05-30T05:12:36.855Z,101549.98
2019-05-30T05:15:09.603Z,101544.77
2019-05-30T05:17:40.880Z,101550.56
2019-05-30T05:20:15.185Z,101540.66
2019-05-30T05:22:46.555Z,101543.86
2019-05-30T05:25:17.981Z,101547.43
2019-05-30T05:27:49.360Z,101546.91
2019-05-30T05:30:33.679Z,101548.95
2019-05-30T05:33:05.142Z,101547.78
2019-05-30T05:37:19.028Z,101553.45
2019-05-30T05:39:53.888Z,101544.63
2019-05-30T05:42:28.624Z,101546.53
2019-05-30T05:44:58.146Z,101546.23
2019-05-30T05:47:52.713Z,101549.05
2019-05-30T05:50:29.202Z,101556.11
2019-05-30T05:53:30.629Z,101549.13
2019-05-30T05:56:02.525Z,101552.80
2019-05-30T05:58:44.507Z,101565.05
2019-05-30T06:01:21.547Z,101567.70
2019-05-30T06:03:52.925Z,101563.64
2019-05-30T06:06:58.789Z,101571.35
2019-05-30T06:09:30.237Z,101572.73
2019-05-30T06:12:01.513Z,101576.04
2019-05-30T06:14:32.842Z,101580.09
2019-05-30T06:17:04.193Z,101575.72
2019-05-30T06:19:46.006Z,101578.90
2019-05-30T06:22:08.522Z,101582.81
2019-05-30T06:24:39.777Z,101581.44
2019-05-30T06:27:11.034Z,101583.86
2019-05-30T06:29:44.568Z,101587.08
2019-05-30T06:32:16.686Z,101590.41
2019-05-30T06:34:50.758Z,101587.83
2019-05-30T06:37:23.149Z,101593.33
2019-05-30T06:39:54.579Z,101597.73
2019-05-30T06:42:26.259Z,101599.94
2019-05-30T06:44:59.947Z,101602.89
2019-05-30T06:47:31.685Z,101599.64
2019-05-30T06:51:31.151Z,101603.12
2019-05-30T06:54:02.775Z,101601.30
2019-05-30T06:56:34.283Z,101609.02
2019-05-30T06:59:06.692Z,101609.20
2019-05-30T07:01:38.066Z,101609.61
2019-05-30T07:04:09.857Z,101607.44
2019-05-30T07:06:41.841Z,101610.07
2019-05-30T07:09:13.760Z,101614.17
2019-05-30T07:11:45.391Z,101617.70
2019-05-30T07:14:17.044Z,101625.52
2019-05-30T07:16:48.786Z,101622.98
2019-05-30T07:19:20.802Z,101619.95
2019-05-30T07:21:52.116Z,101635.86
2019-05-30T07:24:23.818Z,101635.71
2019-05-30T07:27:11.464Z,101635.64
2019-05-30T07:29:43.003Z,101646.36
2019-05-30T07:32:14.339Z,101650.05
2019-05-30T07:34:46.210Z,101651.22
2019-05-30T07:37:17.709Z,101655.78
2019-05-30T07:39:49.087Z,101657.03
2019-05-30T07:42:20.734Z,101661.94
2019-05-30T07:44:52.023Z,101662.72
2019-05-30T07:47:23.365Z,101659.83
2019-05-30T07:49:54.684Z,101669.95
2019-05-30T07:52:26.476Z,101680.42
2019-05-30T07:54:57.726Z,101681.94
2019-05-30T07:57:30.246Z,101674.91
2019-05-30T08:00:01.737Z,101674.58
2019-05-30T08:02:33.636Z,101676.73
2019-05-30T08:05:22.476Z,101680.31
2019-05-30T08:07:39.077Z,101677.25
2019-05-30T08:10:12.291Z,101673.97
2019-05-30T08:12:43.628Z,101675.00
2019-05-30T08:15:18.075Z,101675.36
2019-05-30T08:17:49.444Z,101665.59
2019-05-30T08:20:23.786Z,101666.08
2019-05-30T08:22:55.078Z,101656.63
2019-05-30T08:25:26.400Z,101655.30
2019-05-30T08:27:57.821Z,101646.05
2019-05-30T08:30:30.334Z,101654.80
2019-05-30T08:33:01.804Z,101651.81
2019-05-30T08:35:46.734Z,101667.41
2019-05-30T08:38:06.196Z,101660.25
2019-05-30T08:40:37.798Z,101663.55
2019-05-30T08:43:09.277Z,101667.94
2019-05-30T08:45:40.731Z,101666.12
2019-05-30T08:48:12.027Z,101662.09
2019-05-30T08:50:44.814Z,101665.08
2019-05-30T08:53:16.195Z,101662.64
2019-05-30T08:55:47.502Z,101662.32
2019-05-30T08:58:19.172Z,101663.03
2019-05-30T09:00:50.702Z,101661.11
2019-05-30T09:03:22.017Z,101660.42
2019-05-30T09:06:02.673Z,101654.83
2019-05-30T09:08:29.118Z,101651.08
2019-05-30T09:11:00.485Z,101652.92
2019-05-30T09:13:31.817Z,101652.38
2019-05-30T09:16:03.309Z,101649.70
2019-05-30T09:18:34.618Z,101644.20
2019-05-30T09:21:06.258Z,101645.88
2019-05-30T09:23:39.181Z,101651.68
2019-05-30T09:26:10.665Z,101658.30
2019-05-30T09:28:42.276Z,101661.06
2019-05-30T09:31:13.690Z,101656.60
2019-05-30T09:33:45.041Z,101653.66
2019-05-30T09:36:16.403Z,101659.60
2019-05-30T09:38:47.731Z,101665.72
2019-05-30T09:41:19.129Z,101671.45
2019-05-30T09:43:50.491Z,101665.17
2019-05-30T09:46:21.852Z,101668.77
2019-05-30T09:48:53.871Z,101673.14
2019-05-30T09:51:26.117Z,101668.39
2019-05-30T09:53:57.559Z,101671.61
2019-05-30T09:56:29.457Z,101670.54
2019-05-30T09:59:01.224Z,101667.29
2019-05-30T10:01:36.520Z,101674.91
2019-05-30T10:04:08.931Z,101679.86
2019-05-30T10:06:42.083Z,101679.69
2019-05-30T10:09:15.382Z,101682.52
2019-05-30T10:11:47.858Z,101679.61
2019-05-30T10:14:20.175Z,101686.73
2019-05-30T10:16:55.941Z,101679.94
2019-05-30T10:19:28.377Z,101680.30
2019-05-30T10:22:13.639Z,101678.33
2019-05-30T10:24:51.094Z,101675.35
2019-05-30T10:27:23.708Z,101681.31
2019-05-30T10:29:56.099Z,101680.67
2019-05-30T10:32:45.391Z,101683.22
2019-05-30T10:35:18.579Z,101680.87
2019-05-30T10:37:51.097Z,101675.81
2019-05-30T10:40:23.860Z,101675.02
2019-05-30T10:42:56.860Z,101677.34
2019-05-30T10:45:29.929Z,101673.39
2019-05-30T10:48:02.606Z,101677.84
2019-05-30T10:50:35.114Z,101676.17
2019-05-30T10:53:10.158Z,101678.16
2019-05-30T10:55:42.689Z,101685.20
2019-05-30T10:58:15.210Z,101683.88
2019-05-30T11:00:53.791Z,101687.10
2019-05-30T11:03:28.512Z,101691.28
2019-05-30T11:06:34.511Z,101690.63
2019-05-30T11:09:08.849Z,101683.75
2019-05-30T11:11:41.336Z,101684.70
2019-05-30T11:14:13.806Z,101684.72
2019-05-30T11:16:47.056Z,101692.05
2019-05-30T11:19:20.332Z,101690.83
2019-05-30T11:21:53.206Z,101688.63
2019-05-30T11:24:27.002Z,101691.22
2019-05-30T11:26:59.476Z,101690.41
2019-05-30T11:29:35.288Z,101697.13
2019-05-30T11:32:07.774Z,101694.77
2019-05-30T11:34:40.236Z,101691.39
2019-05-30T11:37:18.483Z,101695.91
2019-05-30T11:39:49.046Z,101700.63
2019-05-30T11:42:21.537Z,101701.89
2019-05-30T11:44:55.279Z,101700.20
2019-05-30T11:47:27.939Z,101704.55
2019-05-30T11:50:00.441Z,101702.08
2019-05-30T11:52:32.888Z,101701.94
2019-05-30T11:55:05.364Z,101709.09
2019-05-30T11:57:40.153Z,101708.75
2019-05-30T12:00:13.388Z,101704.45
2019-05-30T12:02:45.839Z,101706.95
2019-05-30T12:05:19.166Z,101710.50
2019-05-30T12:07:52.739Z,101706.08
2019-05-30T12:10:27.174Z,101711.48
2019-05-30T12:12:59.676Z,101708.34
2019-05-30T12:15:33.375Z,101711.74
2019-05-30T12:18:05.902Z,101718.23
2019-05-30T12:20:38.349Z,101720.65
2019-05-30T12:23:11.955Z,101721.92
2019-05-30T12:25:45.078Z,101719.84
2019-05-30T12:28:17.569Z,101723.39
2019-05-30T12:30:56.648Z,101727.19
2019-05-30T12:33:24.158Z,101724.42
2019-05-30T12:35:56.652Z,101726.49
2019-05-30T12:38:29.058Z,101724.10
2019-05-30T12:41:02.895Z,101728.72
2019-05-30T12:43:35.545Z,101726.88
2019-05-30T12:46:08.097Z,101725.28
2019-05-30T12:48:40.615Z,101727.95
2019-05-30T12:51:13.149Z,101730.11
2019-05-30T12:53:45.545Z,101725.94
2019-05-30T12:56:17.944Z,101732.17
2019-05-30T12:58:50.302Z,101728.77
2019-05-30T13:01:22.791Z,101735.27
2019-05-30T13:03:55.140Z,101725.55
2019-05-30T13:06:27.610Z,101735.72
2019-05-30T13:09:03.381Z,101734.32
2019-05-30T13:11:37.131Z,101730.94
2019-05-30T13:14:09.832Z,101739.77
2019-05-30T13:16:42.229Z,101743.02
2019-05-30T13:19:14.556Z,101734.64
2019-05-30T13:21:47.009Z,101743.23
2019-05-30T13:24:19.532Z,101735.77
2019-05-30T13:26:55.589Z,101742.05
2019-05-30T13:29:28.391Z,101744.42
2019-05-30T13:32:00.902Z,101737.02
2019-05-30T13:34:33.302Z,101740.50
2019-05-30T13:37:07.060Z,101741.61
2019-05-30T13:39:39.141Z,101745.30
2019-05-30T13:42:11.679Z,101742.46
2019-05-30T13:44:44.093Z,101744.84
2019-05-30T13:47:16.271Z,101747.67
2019-05-30T13:49:48.547Z,101749.36
2019-05-30T13:52:21.017Z,101750.12
2019-05-30T13:54:53.426Z,101753.80
2019-05-30T13:57:26.991Z,101752.80
2019-05-30T13:59:59.629Z,101746.19
2019-05-30T14:02:32.093Z,101754.73
2019-05-30T14:05:08.190Z,101742.67
2019-05-30T14:07:41.014Z,101743.33
2019-05-30T14:10:14.020Z,101740.30
2019-05-30T14:12:46.468Z,101744.25
2019-05-30T14:15:19.691Z,101747.58
2019-05-30T14:17:53.476Z,101742.39
2019-05-30T14:20:26.235Z,101743.70
2019-05-30T14:22:58.743Z,101738.30
2019-05-30T14:25:31.233Z,101735.05
2019-05-30T14:28:05.584Z,101736.77
2019-05-30T14:30:38.376Z,101740.91
2019-05-30T14:33:10.748Z,101741.22
2019-05-30T14:35:43.576Z,101740.29
2019-05-30T14:38:17.729Z,101737.06
2019-05-30T14:40:50.350Z,101729.09
2019-05-30T14:43:22.992Z,101727.19
2019-05-30T14:45:55.444Z,101730.23
2019-05-30T14:48:28.094Z,101725.42
2019-05-30T14:51:00.599Z,101719.27
2019-05-30T14:53:33.391Z,101730.06
2019-05-30T14:56:06.960Z,101734.52
2019-05-30T14:58:39.551Z,101728.89
2019-05-30T15:01:13.263Z,101729.22
2019-05-30T15:03:46.073Z,101731.86
2019-05-30T15:06:18.684Z,101731.08
2019-05-30T15:08:53.450Z,101741.23
2019-05-30T15:11:25.974Z,101740.73
2019-05-30T15:13:58.583Z,101739.31
2019-05-30T15:16:31.440Z,101739.45
2019-05-30T15:19:04.068Z,101736.59
2019-05-30T15:21:36.631Z,101743.08
2019-05-30T15:24:09.752Z,101744.47
2019-05-30T15:26:42.403Z,101741.02
2019-05-30T15:29:18.765Z,101736.09
2019-05-30T15:31:51.227Z,101735.29
2019-05-30T15:34:24.205Z,101720.52
2019-05-30T15:36:56.817Z,101724.01
2019-05-30T15:39:32.756Z,101722.59
2019-05-30T15:42:03.911Z,101720.16
2019-05-30T15:44:36.550Z,101724.30
2019-05-30T15:47:09.943Z,101722.94
2019-05-30T15:49:42.737Z,101723.91
2019-05-30T15:52:15.432Z,101714.92
2019-05-30T15:54:48.266Z,101726.64
2019-05-30T15:57:22.377Z,101714.92
2019-05-30T15:59:54.773Z,101715.13
2019-05-30T16:02:27.288Z,101725.74
2019-05-30T16:05:00.088Z,101714.68
2019-05-30T16:07:33.300Z,101710.75
2019-05-30T16:10:06.650Z,101714.16
2019-05-30T16:12:42.041Z,101719.92
2019-05-30T16:15:17.656Z,101717.56
2019-05-30T16:17:50.320Z,101717.55
2019-05-30T16:20:23.191Z,101708.80
2019-05-30T16:22:55.833Z,101712.84
2019-05-30T16:25:30.037Z,101703.53
2019-05-30T16:28:11.591Z,101704.57
2019-05-30T16:30:45.193Z,101704.53
2019-05-30T16:33:18.010Z,101702.70
2019-05-30T16:35:50.730Z,101702.62
2019-05-30T16:38:23.354Z,101705.27
2019-05-30T16:40:55.903Z,101700.84
2019-05-30T16:43:28.999Z,101709.06
2019-05-30T16:46:03.895Z,101703.06
2019-05-30T16:48:36.555Z,101699.81
2019-05-30T16:51:11.627Z,101708.21
2019-05-30T16:53:44.208Z,101697.95
2019-05-30T16:56:19.182Z,101689.40
2019-05-30T16:58:51.985Z,101681.53
2019-05-30T17:01:26.049Z,101684.46
2019-05-30T17:03:59.268Z,101683.66
2019-05-30T17:06:33.925Z,101679.38
2019-05-30T17:09:10.875Z,101692.41
2019-05-30T17:11:43.733Z,101688.86
2019-05-30T17:14:16.232Z,101689.59
2019-05-30T17:16:49.282Z,101698.45
2019-05-30T17:19:24.612Z,101695.23
2019-05-30T17:21:57.986Z,101689.34
2019-05-30T17:24:30.953Z,101689.14
2019-05-30T17:27:03.870Z,101691.00
2019-05-30T17:29:36.386Z,101696.18
2019-05-30T17:32:17.711Z,101696.49
2019-05-30T17:34:50.702Z,101691.69
2019-05-30T17:37:24.491Z,101694.39
2019-05-30T17:39:57.317Z,101692.94
2019-05-30T17:42:29.934Z,101692.32
2019-05-30T17:45:02.346Z,101691.16
2019-05-30T17:47:34.904Z,101689.07
2019-05-30T17:50:08.286Z,101682.55
2019-05-30T17:52:42.144Z,101688.05
2019-05-30T17:55:19.749Z,101684.66
2019-05-30T17:57:55.152Z,101685.94
2019-05-30T18:00:28.534Z,101686.05
2019-05-30T18:03:03.566Z,101681.48
2019-05-30T18:05:37.153Z,101683.66
2019-05-30T18:08:09.947Z,101689.02
2019-05-30T18:10:53.201Z,101685.08
2019-05-30T18:13:19.405Z,101691.20
2019-05-30T18:15:53.324Z,101697.14
2019-05-30T18:18:25.830Z,101690.88
2019-05-30T18:20:58.981Z,101693.93
2019-05-30T18:23:31.785Z,101699.81
2019-05-30T18:26:04.427Z,101692.34
2019-05-30T18:28:37.000Z,101699.52
2019-05-30T18:31:10.013Z,101703.67
2019-05-30T18:33:42.740Z,101699.17
2019-05-30T18:36:18.417Z,101695.78
2019-05-30T18:38:52.096Z,101696.79
2019-05-30T18:41:24.614Z,101696.16
2019-05-30T18:43:57.201Z,101700.21
2019-05-30T18:46:29.693Z,101705.17
2019-05-30T18:49:03.427Z,101707.87
2019-05-30T18:51:36.766Z,101705.48
2019-05-30T18:54:10.370Z,101714.70
2019-05-30T18:56:44.766Z,101713.66
2019-05-30T18:59:17.711Z,101713.60
2019-05-30T19:01:51.994Z,101713.00
2019-05-30T19:04:27.472Z,101713.60
2019-05-30T19:07:02.683Z,101713.97
2019-05-30T19:09:35.377Z,101714.78
2019-05-30T19:12:10.980Z,101713.91
2019-05-30T19:14:43.561Z,101713.32
2019-05-30T19:17:16.384Z,101704.25
2019-05-30T19:19:51.343Z,101711.45
2019-05-30T19:22:25.952Z,101721.06
2019-05-30T19:24:59.609Z,101718.16
2019-05-30T19:27:34.854Z,101720.80
2019-05-30T19:30:06.933Z,101717.94
2019-05-30T19:32:44.414Z,101722.84
2019-05-30T19:35:17.313Z,101726.62
2019-05-30T19:37:50.299Z,101727.91
2019-05-30T19:40:24.889Z,101738.76
2019-05-30T19:42:57.809Z,101744.67
2019-05-30T19:45:34.109Z,101745.77
2019-05-30T19:48:08.183Z,101750.39
2019-05-30T19:50:41.189Z,101755.67
2019-05-30T19:53:13.744Z,101757.29
2019-05-30T19:55:47.807Z,101763.55
2019-05-30T19:58:22.184Z,101771.84
2019-05-30T20:00:59.185Z,101772.28
2019-05-30T20:03:37.496Z,101775.56
2019-05-30T20:06:06.251Z,101777.91
2019-05-30T20:08:54.348Z,101780.60
2019-05-30T20:11:12.949Z,101786.13
2019-05-30T20:13:46.674Z,101783.36
2019-05-30T20:16:22.334Z,101780.27
2019-05-30T20:18:56.452Z,101784.17
2019-05-30T20:21:29.049Z,101782.51
2019-05-30T20:24:01.679Z,101778.33
2019-05-30T20:26:36.622Z,101780.53
2019-05-30T20:29:10.677Z,101784.02
2019-05-30T20:31:45.783Z,101783.69
2019-05-30T20:34:18.417Z,101783.05
2019-05-30T20:36:52.683Z,101783.52
2019-05-30T20:39:25.122Z,101788.72
2019-05-30T20:41:57.656Z,101791.38
2019-05-30T20:44:30.178Z,101794.28
2019-05-30T20:47:02.847Z,101798.95
2019-05-30T20:49:35.404Z,101803.27
2019-05-30T20:52:08.093Z,101800.41
2019-05-30T20:54:41.463Z,101794.66
2019-05-30T20:57:14.561Z,101802.78
2019-05-30T20:59:47.143Z,101806.33
2019-05-30T21:02:19.872Z,101804.80
2019-05-30T21:04:52.444Z,101809.48
2019-05-30T21:07:27.413Z,101808.94
2019-05-30T21:10:00.722Z,101812.00
2019-05-30T21:12:39.412Z,101812.45
2019-05-30T21:15:10.642Z,101810.56
2019-05-30T21:17:46.211Z,101815.34
2019-05-30T21:20:19.849Z,101811.70
2019-05-30T21:22:52.459Z,101811.84
2019-05-30T21:25:25.041Z,101815.80
2019-05-30T21:27:57.740Z,101812.75
2019-05-30T21:30:30.646Z,101816.89
2019-05-30T21:33:05.751Z,101818.85
2019-05-30T21:35:39.590Z,101814.22
2019-05-30T21:38:12.522Z,101813.72
2019-05-30T21:40:46.561Z,101818.00
2019-05-30T21:43:19.343Z,101821.54
2019-05-30T21:45:51.781Z,101823.02
2019-05-30T21:48:29.484Z,101817.63
2019-05-30T21:51:01.549Z,101821.04
2019-05-30T21:53:33.368Z,101819.34
2019-05-30T21:56:04.697Z,101812.36
2019-05-30T21:58:36.024Z,101809.16
2019-05-30T22:01:38.543Z,101811.38
2019-05-30T22:04:10.432Z,101820.95
2019-05-30T22:06:42.804Z,101820.60
2019-05-30T22:09:14.322Z,101830.27
2019-05-30T22:11:45.695Z,101820.34
2019-05-30T22:14:16.994Z,101815.89
2019-05-30T22:16:48.288Z,101823.07
2019-05-30T22:19:19.896Z,101824.28
2019-05-30T22:21:52.333Z,101823.78
2019-05-30T22:24:23.798Z,101819.39
2019-05-30T22:26:55.188Z,101824.12
2019-05-30T22:29:27.272Z,101827.26
2019-05-30T22:31:58.517Z,101820.78
2019-05-30T22:34:33.477Z,101822.63
2019-05-30T22:37:05.065Z,101827.93
2019-05-30T22:39:36.446Z,101827.13
2019-05-30T22:42:08.235Z,101825.33
2019-05-30T22:45:29.222Z,101827.70
2019-05-30T22:48:00.479Z,101829.55
2019-05-30T22:50:31.755Z,101823.03
2019-05-30T22:53:03.059Z,101820.80
2019-05-30T22:55:34.354Z,101821.64
2019-05-30T22:58:07.373Z,101816.61
2019-05-30T23:00:38.741Z,101817.04
2019-05-30T23:03:11.074Z,101817.05
2019-05-30T23:05:42.262Z,101819.89
2019-05-30T23:08:16.338Z,101820.47
2019-05-30T23:10:47.714Z,101825.91
2019-05-30T23:13:18.995Z,101817.95
2019-05-30T23:15:50.319Z,101816.97
2019-05-30T23:18:21.705Z,101813.64
2019-05-30T23:20:58.533Z,101815.91
2019-05-30T23:23:29.828Z,101813.70
2019-05-30T23:26:01.112Z,101817.38
2019-05-30T23:28:32.376Z,101818.97
2019-05-30T23:31:03.729Z,101814.30
2019-05-30T23:33:35.091Z,101815.51
2019-05-30T23:36:06.400Z,101814.59
2019-05-30T23:38:37.936Z,101813.63
2019-05-30T23:41:09.653Z,101821.28
2019-05-30T23:43:55.379Z,101819.53
2019-05-30T23:46:15.426Z,101817.42
2019-05-30T23:48:46.932Z,101816.02
2019-05-30T23:51:18.218Z,101814.53
2019-05-30T23:53:49.988Z,101804.75
2019-05-30T23:56:21.452Z,101809.59
2019-05-30T23:58:52.781Z,101807.40
